Time;durP1;ratioP1;P1;durP2;ratioP2;P2;SDS_P1;SDS_P2;PMS_P1;PMS_P2;Temp;Humidity;BMP_temperature;BMP_pressure;BME280_temperature;BME280_humidity;BME280_pressure;Samples;Min_cycle;Max_cycle;Signal;HPM_P1;HPM_P2
2023/09/13 00:00:38;;;;;;;21.83;0.35;;;19.40;99.90;;;;;;5123380;27;20075;-68
2023/09/13 00:03:04;;;;;;;0.05;0.00;;;19.40;99.90;;;;;;5123000;27;20530;-68
2023/09/13 00:05:30;;;;;;;0.15;0.15;;;19.30;99.90;;;;;;5122461;27;20112;-68
2023/09/13 00:07:55;;;;;;;0.00;0.00;;;19.30;99.90;;;;;;5115233;27;20041;-68
2023/09/13 00:10:21;;;;;;;0.00;0.00;;;19.20;99.90;;;;;;5104289;28;20058;-68
2023/09/13 00:12:47;;;;;;;0.45;0.45;;;19.20;99.90;;;;;;5125664;27;20130;-68
2023/09/13 00:15:12;;;;;;;0.00;0.00;;;19.20;99.90;;;;;;5127227;27;20039;-68
2023/09/13 00:17:38;;;;;;;0.10;0.10;;;19.10;99.90;;;;;;5124799;27;20482;-68
2023/09/13 00:20:05;;;;;;;0.05;0.05;;;19.20;99.90;;;;;;5122576;27;20047;-68
2023/09/13 00:22:31;;;;;;;3.20;0.68;;;19.20;99.90;;;;;;5123573;27;20047;-68
2023/09/13 00:24:56;;;;;;;0.98;0.35;;;19.10;99.90;;;;;;5120981;27;20043;-68
2023/09/13 00:27:22;;;;;;;0.00;0.00;;;19.10;99.90;;;;;;5125863;27;20479;-68
2023/09/13 00:29:47;;;;;;;0.00;0.00;;;19.10;99.90;;;;;;5109108;27;20043;-68
2023/09/13 00:32:13;;;;;;;0.00;0.00;;;19.00;99.90;;;;;;5125893;27;20049;-68
2023/09/13 00:34:39;;;;;;;0.47;0.47;;;19.00;99.90;;;;;;5122948;27;20043;-68
2023/09/13 00:37:04;;;;;;;0.25;0.25;;;19.10;99.90;;;;;;5124679;27;20044;-68
2023/09/13 00:39:30;;;;;;;0.10;0.10;;;19.10;99.90;;;;;;5107096;27;20058;-68
2023/09/13 00:41:57;;;;;;;0.00;0.00;;;19.00;99.90;;;;;;5132823;27;20046;-68
2023/09/13 00:44:23;;;;;;;0.00;0.00;;;19.00;99.90;;;;;;5116933;27;20043;-68
2023/09/13 00:46:49;;;;;;;0.47;0.30;;;19.00;99.90;;;;;;5126513;27;20058;-68
2023/09/13 00:49:15;;;;;;;0.10;0.10;;;19.00;99.90;;;;;;5124433;27;20055;-68
2023/09/13 00:51:40;;;;;;;0.00;0.00;;;19.00;99.90;;;;;;5121353;27;20047;-68
2023/09/13 00:54:07;;;;;;;0.20;0.20;;;19.00;99.90;;;;;;5132809;27;20043;-68
2023/09/13 00:56:34;;;;;;;0.00;0.00;;;19.00;99.90;;;;;;5122534;27;20089;-68
2023/09/13 00:59:01;;;;;;;0.00;0.00;;;19.00;99.90;;;;;;5126191;27;20092;-68
2023/09/13 01:01:28;;;;;;;0.20;0.20;;;19.00;99.90;;;;;;5131396;27;20062;-68
2023/09/13 01:03:53;;;;;;;0.00;0.00;;;19.00;99.90;;;;;;5124564;27;20039;-68
2023/09/13 01:06:19;;;;;;;0.00;0.00;;;19.00;99.90;;;;;;5118677;27;20043;-68
2023/09/13 01:08:45;;;;;;;0.03;0.00;;;19.00;99.90;;;;;;5125256;27;20043;-68
2023/09/13 01:11:11;;;;;;;0.08;0.08;;;19.00;99.90;;;;;;5125475;27;20042;-68
2023/09/13 01:13:37;;;;;;;0.00;0.00;;;18.90;99.90;;;;;;5130393;27;20394;-68
2023/09/13 01:16:14;;;;;;;0.00;0.00;;;19.00;99.90;;;;;;5120679;27;20031;-68
2023/09/13 01:19:07;;;;;;;0.00;0.00;;;18.90;99.90;;;;;;5116918;27;20044;-68
2023/09/13 01:22:01;;;;;;;0.00;0.00;;;18.90;99.90;;;;;;5128080;27;20047;-68
2023/09/13 01:24:56;;;;;;;0.00;0.00;;;18.90;99.90;;;;;;5118593;27;20075;-68
2023/09/13 01:27:43;;;;;;;0.00;0.00;;;18.90;99.90;;;;;;5120676;27;20086;-68
2023/09/13 01:30:09;;;;;;;0.00;0.00;;;18.90;99.90;;;;;;5116657;27;20043;-68
2023/09/13 01:32:35;;;;;;;0.00;0.00;;;18.80;99.90;;;;;;5122444;27;20052;-68
2023/09/13 01:35:01;;;;;;;0.00;0.00;;;18.80;99.90;;;;;;5126217;27;20062;-68
2023/09/13 01:37:30;;;;;;;0.00;0.00;;;18.80;99.90;;;;;;5125318;27;20040;-68
2023/09/13 01:39:56;;;;;;;0.00;0.00;;;18.70;99.90;;;;;;5103318;28;20048;-68
2023/09/13 01:42:24;;;;;;;0.00;0.00;;;18.90;99.90;;;;;;5122277;27;20043;-69
2023/09/13 01:44:50;;;;;;;0.00;0.00;;;18.80;99.90;;;;;;5131646;27;20054;-69
2023/09/13 01:47:18;;;;;;;0.00;0.00;;;18.80;99.90;;;;;;5122759;27;20427;-68
2023/09/13 01:49:45;;;;;;;0.75;0.32;;;18.70;99.90;;;;;;5121092;27;20054;-68
2023/09/13 01:52:10;;;;;;;0.20;0.20;;;18.80;99.90;;;;;;5116918;27;20046;-68
2023/09/13 01:54:36;;;;;;;0.00;0.00;;;18.80;99.90;;;;;;5123675;27;20122;-68
2023/09/13 01:57:03;;;;;;;0.00;0.00;;;18.70;99.90;;;;;;5094651;28;20069;-68
2023/09/13 01:59:28;;;;;;;0.00;0.00;;;18.70;99.90;;;;;;5122703;27;20047;-68
2023/09/13 02:01:54;;;;;;;0.00;0.00;;;18.70;99.90;;;;;;5119384;27;20035;-68
2023/09/13 02:04:20;;;;;;;0.22;0.22;;;18.70;99.90;;;;;;5099549;28;20044;-68
2023/09/13 02:06:45;;;;;;;0.00;0.00;;;18.60;99.90;;;;;;5124749;27;20031;-68
2023/09/13 02:09:11;;;;;;;0.00;0.00;;;18.60;99.90;;;;;;5123963;27;20043;-68
2023/09/13 02:11:36;;;;;;;0.00;0.00;;;18.60;99.90;;;;;;5120045;27;20727;-68
2023/09/13 02:14:02;;;;;;;0.00;0.00;;;18.50;99.90;;;;;;5123435;27;20490;-69
2023/09/13 02:16:28;;;;;;;0.00;0.00;;;18.60;99.90;;;;;;5121825;27;20089;-68
2023/09/13 02:18:54;;;;;;;0.00;0.00;;;18.50;99.90;;;;;;5121376;27;20386;-68
2023/09/13 02:21:19;;;;;;;0.00;0.00;;;18.40;99.90;;;;;;5121551;28;20122;-69
2023/09/13 02:23:45;;;;;;;0.00;0.00;;;18.40;99.90;;;;;;5123678;27;20097;-68
2023/09/13 02:26:24;;;;;;;0.00;0.00;;;18.40;99.90;;;;;;5108593;28;20035;-69
2023/09/13 02:28:51;;;;;;;0.00;0.00;;;18.30;99.90;;;;;;5121547;28;20043;-70
2023/09/13 02:31:24;;;;;;;0.00;0.00;;;18.30;99.90;;;;;;5105304;28;20393;-70
2023/09/13 02:33:50;;;;;;;0.13;0.13;;;18.20;99.90;;;;;;5123081;28;20403;-69
2023/09/13 02:36:15;;;;;;;0.00;0.00;;;18.20;99.90;;;;;;5120599;28;20047;-69
2023/09/13 02:38:41;;;;;;;0.10;0.10;;;18.20;99.90;;;;;;5119939;28;20608;-70
2023/09/13 02:41:07;;;;;;;0.00;0.00;;;18.10;99.90;;;;;;5122511;28;20051;-70
2023/09/13 02:43:32;;;;;;;0.03;0.03;;;18.10;99.90;;;;;;5118279;28;20032;-71
2023/09/13 02:45:58;;;;;;;0.00;0.00;;;18.10;99.90;;;;;;5125734;28;20047;-71
2023/09/13 02:48:25;;;;;;;0.10;0.10;;;18.00;99.90;;;;;;5120338;28;20126;-71
2023/09/13 02:50:50;;;;;;;0.40;0.40;;;18.00;99.90;;;;;;5120785;28;20044;-71
2023/09/13 02:53:16;;;;;;;0.00;0.00;;;18.00;99.90;;;;;;5126621;28;20046;-70
2023/09/13 02:55:41;;;;;;;0.00;0.00;;;17.90;99.90;;;;;;5117826;28;20059;-70
2023/09/13 02:58:08;;;;;;;0.00;0.00;;;17.90;99.90;;;;;;5124037;28;20118;-70
2023/09/13 03:00:34;;;;;;;0.00;0.00;;;17.90;99.90;;;;;;5121809;28;20104;-70
2023/09/13 03:03:00;;;;;;;0.45;0.28;;;17.80;99.90;;;;;;5131626;28;20471;-70
2023/09/13 03:05:26;;;;;;;0.10;0.10;;;17.80;99.90;;;;;;5121287;28;20084;-70
2023/09/13 03:07:53;;;;;;;0.00;0.00;;;17.80;99.90;;;;;;5121280;28;20031;-70
2023/09/13 03:10:19;;;;;;;0.00;0.00;;;17.90;99.90;;;;;;5102259;28;20043;-70
2023/09/13 03:12:44;;;;;;;0.00;0.00;;;17.80;99.90;;;;;;5122291;28;20119;-70
2023/09/13 03:15:10;;;;;;;0.00;0.00;;;17.70;99.90;;;;;;5118993;27;20059;-70
2023/09/13 03:17:36;;;;;;;0.00;0.00;;;17.70;99.90;;;;;;5129633;27;20039;-71
2023/09/13 03:20:02;;;;;;;0.00;0.00;;;17.70;99.90;;;;;;5105740;28;20077;-70
2023/09/13 03:22:27;;;;;;;0.00;0.00;;;17.60;99.90;;;;;;5123998;27;20506;-71
2023/09/13 03:24:53;;;;;;;0.20;0.20;;;17.70;99.90;;;;;;5125073;27;20090;-70
2023/09/13 03:27:18;;;;;;;0.10;0.10;;;17.60;99.90;;;;;;5125294;27;20043;-70
2023/09/13 03:29:44;;;;;;;0.00;0.00;;;17.60;99.90;;;;;;5123773;27;20052;-69
2023/09/13 03:32:10;;;;;;;0.00;0.00;;;17.60;99.90;;;;;;5123833;27;20035;-70
2023/09/13 03:34:37;;;;;;;0.00;0.00;;;17.60;99.90;;;;;;5121976;27;20577;-69
2023/09/13 03:37:04;;;;;;;0.00;0.00;;;17.70;99.90;;;;;;5113705;27;20139;-69
2023/09/13 03:39:31;;;;;;;0.00;0.00;;;17.50;99.90;;;;;;5123724;27;20429;-69
2023/09/13 03:41:57;;;;;;;0.00;0.00;;;17.50;99.90;;;;;;5122028;27;20050;-68
2023/09/13 03:44:22;;;;;;;0.00;0.00;;;17.50;99.90;;;;;;5124948;27;20048;-68
2023/09/13 03:46:48;;;;;;;0.60;0.60;;;17.40;99.90;;;;;;5103873;28;20063;-68
2023/09/13 03:49:14;;;;;;;0.00;0.00;;;17.30;99.90;;;;;;5124422;27;20099;-69
2023/09/13 03:51:39;;;;;;;0.00;0.00;;;17.30;99.90;;;;;;5120309;27;20067;-69
2023/09/13 03:54:05;;;;;;;0.00;0.00;;;17.40;99.90;;;;;;5110666;27;20066;-69
2023/09/13 03:56:31;;;;;;;0.00;0.00;;;17.40;99.90;;;;;;5122758;27;20047;-69
2023/09/13 03:58:56;;;;;;;0.00;0.00;;;17.50;99.90;;;;;;5127610;27;20451;-69
2023/09/13 04:01:22;;;;;;;0.10;0.10;;;17.40;99.90;;;;;;5131486;27;20050;-70
2023/09/13 04:03:48;;;;;;;0.00;0.00;;;17.40;99.90;;;;;;5121465;27;20039;-70
2023/09/13 04:06:13;;;;;;;0.65;0.65;;;17.40;99.90;;;;;;5099516;28;20122;-70
2023/09/13 04:08:39;;;;;;;0.70;0.30;;;17.40;99.90;;;;;;5125158;27;20094;-70
2023/09/13 04:11:05;;;;;;;0.00;0.00;;;17.20;99.90;;;;;;5120098;27;20043;-70
2023/09/13 04:13:30;;;;;;;0.28;0.28;;;17.20;99.90;;;;;;5130984;27;20395;-70
2023/09/13 04:16:00;;;;;;;0.00;0.00;;;17.20;99.90;;;;;;5126848;27;20060;-70
2023/09/13 04:18:26;;;;;;;0.00;0.00;;;17.10;99.90;;;;;;5106082;28;20051;-70
2023/09/13 04:20:51;;;;;;;5.47;1.38;;;17.10;99.90;;;;;;5125427;27;20047;-70
2023/09/13 04:23:17;;;;;;;0.20;0.15;;;17.00;99.90;;;;;;5125287;27;20047;-69
2023/09/13 04:25:43;;;;;;;0.00;0.00;;;17.00;99.90;;;;;;5121885;27;20039;-70
2023/09/13 04:28:08;;;;;;;0.10;0.10;;;16.90;99.90;;;;;;5122899;27;20402;-70
2023/09/13 04:30:34;;;;;;;0.10;0.10;;;16.90;99.90;;;;;;5123991;27;20039;-70
2023/09/13 04:33:02;;;;;;;1.75;0.38;;;16.90;99.90;;;;;;5124889;27;20082;-70
2023/09/13 04:35:28;;;;;;;0.00;0.00;;;16.80;99.90;;;;;;5104307;28;20180;-69
2023/09/13 04:37:54;;;;;;;10.88;1.75;;;16.80;99.90;;;;;;5129193;27;20117;-69
2023/09/13 04:40:19;;;;;;;0.15;0.15;;;16.70;99.90;;;;;;5116454;27;20039;-70
2023/09/13 04:43:15;;;;;;;0.00;0.00;;;16.60;99.90;;;;;;5105283;28;20043;-70
2023/09/13 04:45:40;;;;;;;0.00;0.00;;;16.50;99.90;;;;;;5120205;27;20489;-70
2023/09/13 04:48:06;;;;;;;0.05;0.05;;;16.50;99.90;;;;;;5102720;27;20175;-70
2023/09/13 04:50:32;;;;;;;0.00;0.00;;;16.50;99.90;;;;;;5124835;27;20035;-70
2023/09/13 04:52:57;;;;;;;0.00;0.00;;;16.30;99.90;;;;;;5132511;27;20047;-70
2023/09/13 04:55:23;;;;;;;0.03;0.03;;;16.40;99.90;;;;;;5104536;27;20100;-70
2023/09/13 04:57:49;;;;;;;0.05;0.05;;;16.30;99.90;;;;;;5121675;27;20042;-70
2023/09/13 05:00:16;;;;;;;0.08;0.08;;;16.30;99.90;;;;;;5129458;27;20451;-69
2023/09/13 05:02:42;;;;;;;0.28;0.28;;;16.30;99.90;;;;;;5125457;27;20032;-70
2023/09/13 05:05:08;;;;;;;0.98;0.15;;;16.20;99.90;;;;;;5116022;27;20044;-70
2023/09/13 05:07:33;;;;;;;0.00;0.00;;;16.20;99.90;;;;;;5115767;27;20040;-70
2023/09/13 05:09:59;;;;;;;0.15;0.15;;;16.10;99.90;;;;;;5122387;27;20453;-70
2023/09/13 05:12:25;;;;;;;0.10;0.10;;;16.10;99.90;;;;;;5123061;27;20050;-69
2023/09/13 05:14:50;;;;;;;0.00;0.00;;;16.10;99.90;;;;;;5110356;27;20039;-69
2023/09/13 05:17:16;;;;;;;4.78;0.47;;;16.00;99.90;;;;;;5123971;27;20038;-69
2023/09/13 05:19:41;;;;;;;0.70;0.70;;;16.10;99.90;;;;;;5122614;27;20051;-69
2023/09/13 05:22:07;;;;;;;0.20;0.20;;;16.10;99.90;;;;;;5124989;27;20035;-69
2023/09/13 05:24:33;;;;;;;0.10;0.10;;;16.00;99.90;;;;;;5120619;27;20430;-69
2023/09/13 05:26:58;;;;;;;1.58;0.52;;;16.00;99.90;;;;;;5124712;27;20044;-69
2023/09/13 05:29:24;;;;;;;0.10;0.10;;;15.90;99.90;;;;;;5124036;27;20042;-69
2023/09/13 05:31:49;;;;;;;0.43;0.43;;;15.90;99.90;;;;;;5123932;27;20386;-69
2023/09/13 05:34:15;;;;;;;0.35;0.35;;;15.90;99.90;;;;;;5120391;27;20055;-69
2023/09/13 05:36:41;;;;;;;0.25;0.25;;;15.90;99.90;;;;;;5128395;27;20146;-69
2023/09/13 05:39:08;;;;;;;0.47;0.47;;;15.90;99.90;;;;;;5123364;27;20115;-69
2023/09/13 05:41:33;;;;;;;0.00;0.00;;;15.90;99.90;;;;;;5104151;27;20047;-70
2023/09/13 05:43:59;;;;;;;0.22;0.22;;;16.00;99.90;;;;;;5119744;27;20040;-69
2023/09/13 05:46:25;;;;;;;0.17;0.17;;;15.90;99.90;;;;;;5124326;27;20074;-70
2023/09/13 05:48:50;;;;;;;0.22;0.22;;;16.00;99.90;;;;;;5115825;27;20395;-70
2023/09/13 05:51:17;;;;;;;0.00;0.00;;;15.90;99.90;;;;;;5124354;27;20035;-69
2023/09/13 05:53:43;;;;;;;0.15;0.15;;;16.10;99.90;;;;;;5118206;27;20075;-70
2023/09/13 05:56:12;;;;;;;0.10;0.10;;;16.00;99.90;;;;;;5120631;27;20123;-70
2023/09/13 05:58:43;;;;;;;0.10;0.10;;;16.00;99.90;;;;;;5103116;28;20127;-70
2023/09/13 06:01:08;;;;;;;0.30;0.30;;;15.80;99.90;;;;;;5116721;27;20071;-70
2023/09/13 06:03:34;;;;;;;0.20;0.20;;;15.90;99.90;;;;;;5126785;27;20158;-69
2023/09/13 06:06:00;;;;;;;2.05;1.13;;;15.90;99.90;;;;;;5102900;28;20048;-69
2023/09/13 06:08:25;;;;;;;0.00;0.00;;;15.90;99.90;;;;;;5121167;27;20393;-69
2023/09/13 06:10:51;;;;;;;0.00;0.00;;;15.90;99.90;;;;;;5131237;27;20035;-70
2023/09/13 06:13:16;;;;;;;0.10;0.10;;;15.80;99.90;;;;;;5124330;27;20126;-69
2023/09/13 06:15:42;;;;;;;0.30;0.30;;;15.90;99.90;;;;;;5124565;27;20039;-70
2023/09/13 06:18:08;;;;;;;0.00;0.00;;;15.90;99.90;;;;;;5111499;27;20043;-70
2023/09/13 06:20:33;;;;;;;0.00;0.00;;;16.00;99.90;;;;;;5119879;27;20042;-69
2023/09/13 06:22:59;;;;;;;0.00;0.00;;;16.00;99.90;;;;;;5123205;27;20042;-70
2023/09/13 06:25:25;;;;;;;6.07;0.17;;;16.00;99.90;;;;;;5118750;27;20917;-69
2023/09/13 06:27:50;;;;;;;0.22;0.22;;;16.10;99.90;;;;;;5124480;28;20093;-69
2023/09/13 06:30:16;;;;;;;0.30;0.30;;;16.10;99.90;;;;;;5121477;28;20078;-69
2023/09/13 06:32:42;;;;;;;1.88;0.65;;;16.20;99.90;;;;;;5106150;28;20062;-69
2023/09/13 06:35:12;;;;;;;0.00;0.00;;;16.20;99.90;;;;;;5121646;28;20047;-69
2023/09/13 06:37:38;;;;;;;0.43;0.43;;;16.10;99.90;;;;;;5117380;28;20390;-69
2023/09/13 06:40:05;;;;;;;0.00;0.00;;;16.10;99.90;;;;;;5122455;28;20035;-69
2023/09/13 06:42:30;;;;;;;0.00;0.00;;;16.10;99.90;;;;;;5104876;28;20035;-70
2023/09/13 06:44:57;;;;;;;7.82;1.50;;;16.10;99.90;;;;;;5102801;28;20376;-70
2023/09/13 06:47:24;;;;;;;0.00;0.00;;;16.10;99.90;;;;;;5104738;28;20422;-70
2023/09/13 06:49:50;;;;;;;0.10;0.10;;;16.10;99.90;;;;;;5133278;27;20125;-70
2023/09/13 06:52:15;;;;;;;0.10;0.10;;;16.10;99.90;;;;;;5124991;27;20185;-70
2023/09/13 06:54:41;;;;;;;0.28;0.28;;;16.00;99.90;;;;;;5124844;27;20032;-70
2023/09/13 06:57:08;;;;;;;0.00;0.00;;;16.10;99.90;;;;;;5122874;27;20081;-70
2023/09/13 06:59:34;;;;;;;0.00;0.00;;;16.10;99.90;;;;;;5123923;27;20394;-70
2023/09/13 07:02:00;;;;;;;0.00;0.00;;;16.10;99.90;;;;;;5109372;27;20085;-70
2023/09/13 07:04:26;;;;;;;0.00;0.00;;;16.20;99.90;;;;;;5105227;27;20082;-70
2023/09/13 07:06:52;;;;;;;0.00;0.00;;;16.20;99.90;;;;;;5107480;27;20046;-70
2023/09/13 07:09:17;;;;;;;0.00;0.00;;;16.20;99.90;;;;;;5109098;27;20054;-69
2023/09/13 07:11:43;;;;;;;0.00;0.00;;;16.20;99.90;;;;;;5123972;27;20122;-70
2023/09/13 07:14:09;;;;;;;0.00;0.00;;;16.30;99.90;;;;;;5120746;27;20387;-70
2023/09/13 07:16:34;;;;;;;0.00;0.00;;;16.40;99.90;;;;;;5125484;27;20054;-69
2023/09/13 07:19:03;;;;;;;0.00;0.00;;;16.50;99.90;;;;;;5119907;27;20039;-70
2023/09/13 07:21:29;;;;;;;0.00;0.00;;;16.50;99.90;;;;;;5123552;27;20043;-69
2023/09/13 07:23:55;;;;;;;0.00;0.00;;;16.50;99.90;;;;;;5126872;27;20043;-69
2023/09/13 07:26:20;;;;;;;0.00;0.00;;;16.40;99.90;;;;;;5123314;27;20376;-69
2023/09/13 07:28:46;;;;;;;0.20;0.20;;;16.40;99.90;;;;;;5122911;27;20439;-69
2023/09/13 07:31:12;;;;;;;0.60;0.22;;;16.50;99.90;;;;;;5112009;28;20048;-69
2023/09/13 07:33:37;;;;;;;0.00;0.00;;;16.40;99.90;;;;;;5122971;27;20059;-69
2023/09/13 07:36:03;;;;;;;0.00;0.00;;;16.60;99.90;;;;;;5103724;27;20043;-69
2023/09/13 07:38:29;;;;;;;0.00;0.00;;;16.60;99.90;;;;;;5111107;27;20096;-69
2023/09/13 07:40:55;;;;;;;0.20;0.20;;;16.70;99.90;;;;;;5107210;27;20047;-68
2023/09/13 07:43:20;;;;;;;0.10;0.10;;;16.60;99.90;;;;;;5107270;27;20051;-69
2023/09/13 07:45:46;;;;;;;0.05;0.05;;;16.60;99.90;;;;;;5108200;28;20180;-69
2023/09/13 07:48:12;;;;;;;0.00;0.00;;;16.60;99.90;;;;;;5120599;27;20046;-69
2023/09/13 07:50:40;;;;;;;0.00;0.00;;;16.50;99.90;;;;;;5128566;27;20042;-68
2023/09/13 07:53:12;;;;;;;2.75;1.85;;;16.50;99.90;;;;;;5124387;27;20115;-69
2023/09/13 07:55:38;;;;;;;0.00;0.00;;;16.50;99.90;;;;;;5122899;27;20428;-68
2023/09/13 07:58:06;;;;;;;0.00;0.00;;;16.50;99.90;;;;;;5122502;27;20048;-69
2023/09/13 08:00:32;;;;;;;0.15;0.15;;;16.40;99.90;;;;;;5112444;27;20051;-68
2023/09/13 08:03:02;;;;;;;0.00;0.00;;;16.50;99.90;;;;;;5103949;27;20066;-68
2023/09/13 08:05:28;;;;;;;0.15;0.15;;;16.50;99.90;;;;;;5121964;27;20048;-68
2023/09/13 08:07:54;;;;;;;0.00;0.00;;;16.50;99.90;;;;;;5125842;27;20118;-68
2023/09/13 08:10:21;;;;;;;0.00;0.00;;;16.50;99.90;;;;;;5126653;27;20096;-68
2023/09/13 08:12:48;;;;;;;1.73;1.60;;;16.50;99.90;;;;;;5122167;27;20054;-68
2023/09/13 08:15:14;;;;;;;0.20;0.20;;;16.50;99.90;;;;;;5132415;27;20538;-68
2023/09/13 08:17:39;;;;;;;0.00;0.00;;;16.50;99.90;;;;;;5123280;27;20130;-68
2023/09/13 08:20:08;;;;;;;0.75;0.70;;;16.50;99.90;;;;;;5116754;27;20047;-68
2023/09/13 08:22:35;;;;;;;0.85;0.85;;;16.50;99.90;;;;;;5121865;27;20079;-68
2023/09/13 08:25:00;;;;;;;0.30;0.30;;;16.50;99.90;;;;;;5127564;27;20035;-68
2023/09/13 08:27:26;;;;;;;0.00;0.00;;;16.40;99.90;;;;;;5105161;28;20085;-68
2023/09/13 08:29:53;;;;;;;0.00;0.00;;;16.50;99.90;;;;;;5105403;27;20066;-68
2023/09/13 08:32:19;;;;;;;20.73;1.10;;;16.50;99.90;;;;;;5124591;27;20150;-68
2023/09/13 08:34:45;;;;;;;0.30;0.30;;;16.50;99.90;;;;;;5120603;27;20453;-68
2023/09/13 08:37:10;;;;;;;1.25;1.15;;;16.40;99.90;;;;;;5122182;27;20535;-67
2023/09/13 08:39:36;;;;;;;0.10;0.10;;;16.40;99.90;;;;;;5122728;27;20044;-68
2023/09/13 08:42:01;;;;;;;0.08;0.08;;;16.40;99.90;;;;;;5124258;27;20058;-67
2023/09/13 08:44:29;;;;;;;0.00;0.00;;;16.40;99.90;;;;;;5122904;27;20368;-68
2023/09/13 08:46:57;;;;;;;3.90;0.77;;;16.40;99.90;;;;;;5127626;27;20039;-68
2023/09/13 08:49:24;;;;;;;0.03;0.03;;;16.40;99.90;;;;;;5118915;27;20047;-68
2023/09/13 08:51:52;;;;;;;0.05;0.05;;;16.50;99.90;;;;;;5103872;27;20129;-68
2023/09/13 08:54:20;;;;;;;0.10;0.10;;;16.50;99.90;;;;;;5122521;27;20044;-68
2023/09/13 08:56:47;;;;;;;0.40;0.40;;;16.40;99.90;;;;;;5125701;27;20042;-68
2023/09/13 08:59:13;;;;;;;0.20;0.20;;;16.40;99.90;;;;;;5121072;27;20054;-68
2023/09/13 09:01:42;;;;;;;0.05;0.05;;;16.40;99.90;;;;;;5104873;27;20050;-68
2023/09/13 09:04:11;;;;;;;1.55;0.75;;;16.30;99.90;;;;;;5125223;27;20039;-68
2023/09/13 09:06:36;;;;;;;0.40;0.40;;;16.40;99.90;;;;;;5121035;27;20046;-68
2023/09/13 09:09:04;;;;;;;0.05;0.05;;;16.50;99.90;;;;;;5126362;27;20061;-68
2023/09/13 09:11:32;;;;;;;0.10;0.10;;;16.50;99.90;;;;;;5123551;27;20058;-68
2023/09/13 09:14:00;;;;;;;0.10;0.10;;;16.60;99.90;;;;;;5103308;28;20043;-68
2023/09/13 09:16:26;;;;;;;0.00;0.00;;;16.60;99.90;;;;;;5121977;27;20407;-68
2023/09/13 09:18:54;;;;;;;0.60;0.60;;;16.70;99.90;;;;;;5121524;27;20560;-68
2023/09/13 09:21:20;;;;;;;0.20;0.20;;;16.80;99.90;;;;;;5121910;27;20776;-68
2023/09/13 09:23:46;;;;;;;0.30;0.30;;;16.80;99.90;;;;;;5124878;27;20122;-68
2023/09/13 09:26:12;;;;;;;0.20;0.20;;;17.20;99.90;;;;;;5113179;27;20118;-68
2023/09/13 09:28:37;;;;;;;0.20;0.20;;;17.50;99.90;;;;;;5104832;27;20043;-68
2023/09/13 09:31:03;;;;;;;0.10;0.10;;;18.50;99.90;;;;;;5103133;28;20380;-68
2023/09/13 09:33:31;;;;;;;0.15;0.15;;;19.30;99.90;;;;;;5117741;27;20566;-68
2023/09/13 09:35:59;;;;;;;0.00;0.00;;;20.00;99.90;;;;;;5125691;27;20078;-68
2023/09/13 09:38:28;;;;;;;0.63;0.63;;;20.70;99.90;;;;;;5121407;27;20044;-69
2023/09/13 09:41:12;;;;;;;0.40;0.40;;;21.00;99.90;;;;;;5124345;27;20047;-69
2023/09/13 09:43:37;;;;;;;0.00;0.00;;;21.30;99.90;;;;;;5125492;27;20042;-69
2023/09/13 09:46:03;;;;;;;0.13;0.13;;;21.40;99.90;;;;;;5122458;27;20036;-69
2023/09/13 09:48:28;;;;;;;0.00;0.00;;;21.30;99.90;;;;;;5123751;27;20479;-69
2023/09/13 09:50:55;;;;;;;0.55;0.40;;;21.60;99.90;;;;;;5116381;27;20047;-70
2023/09/13 09:53:22;;;;;;;0.20;0.20;;;22.00;99.90;;;;;;5127101;27;20039;-70
2023/09/13 09:55:47;;;;;;;0.03;0.03;;;22.10;99.90;;;;;;5121156;27;20494;-70
2023/09/13 09:58:13;;;;;;;0.00;0.00;;;22.10;99.90;;;;;;5121941;27;20051;-69
2023/09/13 10:00:47;;;;;;;0.20;0.20;;;22.40;99.90;;;;;;5119808;27;20517;-70
2023/09/13 10:03:17;;;;;;;0.00;0.00;;;22.40;99.90;;;;;;5121134;27;20055;-68
2023/09/13 10:05:55;;;;;;;1.38;1.27;;;22.40;99.90;;;;;;5106228;27;20042;-70
2023/09/13 10:08:38;;;;;;;0.32;0.30;;;22.30;99.90;;;;;;5119217;27;20094;-70
2023/09/13 10:11:05;;;;;;;0.10;0.10;;;21.50;99.90;;;;;;5124116;27;20121;-70
2023/09/13 10:13:35;;;;;;;0.00;0.00;;;21.30;99.90;;;;;;5122707;27;20054;-70
2023/09/13 10:16:01;;;;;;;0.63;0.50;;;21.30;99.90;;;;;;5114633;27;20043;-70
2023/09/13 10:18:29;;;;;;;0.00;0.00;;;21.20;99.90;;;;;;5104818;27;20047;-70
2023/09/13 10:20:58;;;;;;;2.72;0.65;;;21.00;99.90;;;;;;5120944;27;20177;-70
2023/09/13 10:23:37;;;;;;;0.10;0.10;;;21.00;99.90;;;;;;5103190;28;20534;-70
2023/09/13 10:26:06;;;;;;;2.58;1.13;;;21.10;99.90;;;;;;5123575;27;20035;-70
2023/09/13 10:28:35;;;;;;;0.43;0.43;;;21.20;99.90;;;;;;5123434;27;20078;-70
2023/09/13 10:31:03;;;;;;;0.00;0.00;;;21.20;99.90;;;;;;5103204;28;20062;-70
2023/09/13 10:33:34;;;;;;;0.30;0.30;;;21.20;99.90;;;;;;5115672;28;20059;-70
2023/09/13 10:36:02;;;;;;;0.15;0.15;;;21.20;99.90;;;;;;5122226;28;20085;-70
2023/09/13 10:39:04;;;;;;;0.10;0.10;;;21.30;99.90;;;;;;5123725;28;20051;-70
2023/09/13 10:41:34;;;;;;;0.00;0.00;;;21.10;99.90;;;;;;5116598;28;20047;-70
2023/09/13 10:44:02;;;;;;;0.10;0.10;;;20.60;99.90;;;;;;5122437;28;20140;-69
2023/09/13 10:46:28;;;;;;;14.32;0.63;;;20.30;99.90;;;;;;5120714;28;20043;-69
2023/09/13 10:48:55;;;;;;;0.13;0.13;;;19.90;99.90;;;;;;5120310;28;20061;-69
2023/09/13 10:51:22;;;;;;;0.10;0.10;;;20.00;99.90;;;;;;5124380;28;20044;-69
2023/09/13 10:53:48;;;;;;;0.15;0.15;;;20.10;99.90;;;;;;5102067;28;20039;-69
2023/09/13 10:56:15;;;;;;;0.00;0.00;;;20.00;99.90;;;;;;5127807;28;20050;-69
2023/09/13 10:58:44;;;;;;;2.30;1.75;;;20.30;99.90;;;;;;5123216;28;20391;-69
2023/09/13 11:01:12;;;;;;;0.03;0.03;;;20.00;99.90;;;;;;5126747;28;20118;-69
2023/09/13 11:03:39;;;;;;;0.52;0.52;;;20.00;99.90;;;;;;5115911;28;20043;-69
2023/09/13 11:06:04;;;;;;;0.25;0.15;;;19.90;99.90;;;;;;5123666;28;20393;-69
2023/09/13 11:08:31;;;;;;;0.00;0.00;;;19.80;99.90;;;;;;5101118;28;20042;-69
2023/09/13 11:11:16;;;;;;;0.00;0.00;;;19.70;99.90;;;;;;5124695;28;20039;-69
2023/09/13 11:13:44;;;;;;;0.40;0.40;;;19.60;99.90;;;;;;5120503;28;20058;-70
2023/09/13 11:16:13;;;;;;;0.00;0.00;;;20.50;99.90;;;;;;5118830;28;20031;-69
2023/09/13 11:18:50;;;;;;;0.00;0.00;;;20.50;99.90;;;;;;5121171;28;20046;-69
2023/09/13 11:21:46;;;;;;;0.00;0.00;;;20.70;99.90;;;;;;5123808;28;20398;-69
2023/09/13 11:24:11;;;;;;;0.00;0.00;;;20.40;99.90;;;;;;5118164;28;20066;-69
2023/09/13 11:26:47;;;;;;;0.00;0.00;;;20.80;99.90;;;;;;5122317;28;20039;-69
2023/09/13 11:29:24;;;;;;;0.35;0.10;;;21.40;99.90;;;;;;5118577;28;20479;-69
2023/09/13 11:31:57;;;;;;;0.32;0.32;;;21.80;99.90;;;;;;5120695;28;20050;-69
2023/09/13 11:34:24;;;;;;;0.00;0.00;;;22.30;99.90;;;;;;5120724;28;20062;-69
2023/09/13 11:37:00;;;;;;;0.00;0.00;;;21.90;99.90;;;;;;5126456;27;20130;-69
2023/09/13 11:39:27;;;;;;;0.00;0.00;;;22.40;99.90;;;;;;5123032;27;20051;-69
2023/09/13 11:41:55;;;;;;;0.17;0.17;;;22.70;99.90;;;;;;5128357;27;20051;-69
2023/09/13 11:44:25;;;;;;;0.10;0.10;;;23.00;99.90;;;;;;5104497;27;20050;-69
2023/09/13 11:46:52;;;;;;;0.55;0.35;;;23.20;99.90;;;;;;5124148;27;20124;-69
2023/09/13 11:49:23;;;;;;;0.00;0.00;;;22.50;99.90;;;;;;5125624;27;20088;-69
2023/09/13 11:51:59;;;;;;;0.00;0.00;;;22.00;99.90;;;;;;5126806;27;20403;-69
2023/09/13 11:54:26;;;;;;;4.03;0.30;;;21.60;99.90;;;;;;5122177;27;20062;-69
2023/09/13 11:56:53;;;;;;;0.20;0.10;;;21.30;99.90;;;;;;5125360;27;20046;-69
2023/09/13 11:59:30;;;;;;;0.43;0.43;;;21.10;99.90;;;;;;5125556;27;20047;-70
2023/09/13 12:01:57;;;;;;;0.65;0.20;;;20.70;99.90;;;;;;5121602;27;20092;-70
2023/09/13 12:04:26;;;;;;;0.28;0.25;;;20.50;99.90;;;;;;5124713;27;20040;-70
2023/09/13 12:06:54;;;;;;;0.20;0.20;;;20.50;99.90;;;;;;5126480;27;20035;-69
2023/09/13 12:09:21;;;;;;;0.00;0.00;;;20.50;99.90;;;;;;5125733;27;20051;-69
2023/09/13 12:11:49;;;;;;;0.00;0.00;;;20.80;99.90;;;;;;5126487;27;20035;-69
2023/09/13 12:14:16;;;;;;;0.00;0.00;;;20.70;99.90;;;;;;5099851;27;20047;-69
2023/09/13 12:16:42;;;;;;;0.00;0.00;;;20.60;99.90;;;;;;5101735;27;20048;-70
2023/09/13 12:19:13;;;;;;;0.00;0.00;;;20.30;99.90;;;;;;5100199;28;20039;-69
2023/09/13 12:21:43;;;;;;;0.28;0.28;;;20.40;99.90;;;;;;5122758;27;20088;-69
2023/09/13 12:24:12;;;;;;;0.00;0.00;;;20.90;99.90;;;;;;5107513;27;20035;-69
2023/09/13 12:26:39;;;;;;;0.22;0.22;;;21.20;99.90;;;;;;5102864;27;20515;-69
2023/09/13 12:29:05;;;;;;;0.25;0.25;;;22.10;99.90;;;;;;5124235;27;20135;-69
2023/09/13 12:31:31;;;;;;;0.22;0.15;;;22.60;99.90;;;;;;5124777;27;20040;-70
2023/09/13 12:34:01;;;;;;;0.00;0.00;;;21.80;99.90;;;;;;5130993;27;20628;-70
2023/09/13 12:36:27;;;;;;;0.00;0.00;;;21.20;99.90;;;;;;5122228;27;20096;-70
2023/09/13 12:38:55;;;;;;;0.30;0.30;;;20.70;99.90;;;;;;5120453;27;20474;-69
2023/09/13 12:41:27;;;;;;;0.00;0.00;;;20.20;99.90;;;;;;5126032;27;20047;-69
2023/09/13 12:43:53;;;;;;;0.00;0.00;;;19.80;99.90;;;;;;5125371;27;20077;-69
2023/09/13 12:46:20;;;;;;;0.00;0.00;;;19.50;99.90;;;;;;5094773;27;20084;-69